createdAt,value
2022-12-14T00:01:53.491Z,19.57
2022-12-14T00:04:41.822Z,18.90
2022-12-14T00:07:30.867Z,19.43
2022-12-14T00:10:19.132Z,20.20
2022-12-14T00:13:08.734Z,19.70
2022-12-14T00:15:58.436Z,18.63
2022-12-14T00:18:51.269Z,18.00
2022-12-14T00:21:39.600Z,20.47
2022-12-14T00:24:28.893Z,18.60
2022-12-14T00:27:17.181Z,19.03
2022-12-14T00:30:06.353Z,18.90
2022-12-14T00:32:55.971Z,18.83
2022-12-14T00:35:44.287Z,18.13
2022-12-14T00:38:32.625Z,18.40
2022-12-14T00:41:21.048Z,18.50
2022-12-14T00:44:09.399Z,19.93
2022-12-14T00:46:57.715Z,17.97
2022-12-14T00:49:48.748Z,18.60
2022-12-14T00:55:25.437Z,18.40
2022-12-14T00:58:15.395Z,18.70
2022-12-14T01:01:06.367Z,18.37
2022-12-14T01:04:15.484Z,19.42
2022-12-14T01:07:05.199Z,18.40
2022-12-14T01:09:53.536Z,20.30
2022-12-14T01:12:41.894Z,18.07
2022-12-14T01:15:30.204Z,19.47
2022-12-14T01:18:19.065Z,18.23
2022-12-14T01:21:15.863Z,18.40
2022-12-14T01:24:07.414Z,18.37
2022-12-14T01:26:59.263Z,18.50
2022-12-14T01:29:47.571Z,18.70
2022-12-14T01:32:35.913Z,18.90
2022-12-14T01:35:24.294Z,18.20
2022-12-14T01:38:12.601Z,19.00
2022-12-14T01:41:02.520Z,17.87
2022-12-14T01:43:53.116Z,18.87
2022-12-14T01:46:46.267Z,13.68
2022-12-14T01:49:40.140Z,19.20
2022-12-14T01:52:35.604Z,19.33
2022-12-14T01:55:27.440Z,18.70
2022-12-14T01:58:21.141Z,18.80
2022-12-14T02:01:11.326Z,19.90
2022-12-14T02:03:59.856Z,20.05
2022-12-14T02:06:50.177Z,18.63
2022-12-14T02:09:41.934Z,19.38
2022-12-14T02:12:34.931Z,18.73
2022-12-14T02:15:25.399Z,19.33
2022-12-14T02:18:18.057Z,19.67
2022-12-14T02:21:19.181Z,19.10
2022-12-14T02:24:39.184Z,18.83
2022-12-14T02:27:53.198Z,18.13
2022-12-14T02:30:46.974Z,17.60
2022-12-14T02:33:46.114Z,19.47
2022-12-14T02:36:46.453Z,18.57
2022-12-14T02:39:42.239Z,17.93
2022-12-14T02:42:42.386Z,18.63
2022-12-14T02:45:37.823Z,18.63
2022-12-14T02:48:32.517Z,17.90
2022-12-14T02:51:26.727Z,17.73
2022-12-14T02:54:22.184Z,18.27
2022-12-14T02:57:14.568Z,17.70
2022-12-14T03:00:05.265Z,17.60
2022-12-14T03:02:54.627Z,18.05
2022-12-14T03:05:44.368Z,18.33
2022-12-14T03:08:36.448Z,21.17
2022-12-14T03:11:30.985Z,18.97
2022-12-14T03:14:27.263Z,19.93
2022-12-14T03:17:19.905Z,18.97
2022-12-14T03:20:12.348Z,18.87
2022-12-14T03:23:07.907Z,18.27
2022-12-14T03:26:00.865Z,18.23
2022-12-14T03:28:54.066Z,18.83
2022-12-14T03:31:50.131Z,19.50
2022-12-14T03:34:44.134Z,18.50
2022-12-14T03:37:40.300Z,18.03
2022-12-14T03:40:35.701Z,18.13
2022-12-14T03:43:32.906Z,17.57
2022-12-14T03:46:36.472Z,17.27
2022-12-14T03:49:34.516Z,18.10
2022-12-14T03:52:27.832Z,17.90
2022-12-14T03:55:25.046Z,16.97
2022-12-14T03:58:26.680Z,19.00
2022-12-14T04:01:21.700Z,18.80
2022-12-14T04:04:16.813Z,18.37
2022-12-14T04:07:10.958Z,17.90
2022-12-14T04:10:04.860Z,18.27
2022-12-14T04:13:15.470Z,18.53
2022-12-14T04:16:28.724Z,14.88
2022-12-14T04:19:22.205Z,17.07
2022-12-14T04:22:14.165Z,18.07
2022-12-14T04:25:22.646Z,17.67
2022-12-14T04:28:34.219Z,19.80
2022-12-14T04:31:28.892Z,18.50
2022-12-14T04:34:21.778Z,17.17
2022-12-14T04:37:15.454Z,18.80
2022-12-14T04:40:07.406Z,16.70
2022-12-14T04:43:00.165Z,19.07
2022-12-14T04:45:53.399Z,17.43
2022-12-14T04:48:47.767Z,19.33
2022-12-14T04:51:46.059Z,18.43
2022-12-14T04:54:43.524Z,17.40
2022-12-14T04:57:37.727Z,17.53
2022-12-14T05:00:27.572Z,18.50
2022-12-14T05:03:25.727Z,18.07
2022-12-14T05:06:23.819Z,17.63
2022-12-14T05:09:18.024Z,20.10
2022-12-14T05:12:11.214Z,20.47
2022-12-14T05:15:04.743Z,19.23
2022-12-14T05:17:54.091Z,18.93
2022-12-14T05:20:42.420Z,18.33
2022-12-14T05:23:32.168Z,18.67
2022-12-14T05:26:20.484Z,18.40
2022-12-14T05:29:08.862Z,17.33
2022-12-14T05:31:57.430Z,17.37
2022-12-14T05:34:45.772Z,17.47
2022-12-14T05:37:34.138Z,17.83
2022-12-14T05:40:23.864Z,18.33
2022-12-14T05:43:13.342Z,17.80
2022-12-14T05:46:02.081Z,17.97
2022-12-14T05:48:50.432Z,18.47
2022-12-14T05:51:38.778Z,18.00
2022-12-14T05:54:27.183Z,18.70
2022-12-14T05:57:16.877Z,17.43
2022-12-14T06:00:05.812Z,17.67
2022-12-14T06:02:56.554Z,16.27
2022-12-14T06:05:44.912Z,16.42
2022-12-14T06:08:34.166Z,16.70
2022-12-14T06:11:23.853Z,17.67
2022-12-14T06:14:14.814Z,17.40
2022-12-14T06:17:03.156Z,16.83
2022-12-14T06:19:51.981Z,18.57
2022-12-14T06:22:44.269Z,17.70
2022-12-14T06:25:35.824Z,17.70
2022-12-14T06:28:24.492Z,16.87
2022-12-14T06:31:18.278Z,17.63
2022-12-14T06:34:06.690Z,17.93
2022-12-14T06:36:55.100Z,17.20
2022-12-14T06:39:43.454Z,17.77
2022-12-14T06:42:32.075Z,17.27
2022-12-14T06:45:20.519Z,18.00
2022-12-14T06:48:10.313Z,18.03
2022-12-14T06:51:01.828Z,17.37
2022-12-14T06:53:52.113Z,17.93
2022-12-14T06:56:40.997Z,17.38
2022-12-14T06:59:29.552Z,18.00
2022-12-14T07:02:18.198Z,17.97
2022-12-14T07:05:08.424Z,18.83
2022-12-14T07:07:57.149Z,19.57
2022-12-14T07:10:45.476Z,19.53
2022-12-14T07:13:34.332Z,22.80
2022-12-14T07:16:24.640Z,20.17
2022-12-14T07:19:13.131Z,19.83
2022-12-14T07:22:04.281Z,20.40
2022-12-14T07:27:40.759Z,18.37
2022-12-14T07:30:29.166Z,18.60
2022-12-14T07:33:17.523Z,17.50
2022-12-14T07:36:07.727Z,17.83
2022-12-14T07:38:58.498Z,18.50
2022-12-14T07:41:47.721Z,17.88
2022-12-14T07:44:36.027Z,17.60
2022-12-14T07:47:24.393Z,17.80
2022-12-14T07:50:13.057Z,17.50
2022-12-14T07:53:01.422Z,17.97
2022-12-14T07:55:51.141Z,20.23
2022-12-14T07:58:39.898Z,18.90
2022-12-14T08:01:30.199Z,20.00
2022-12-14T08:04:20.710Z,15.52
2022-12-14T08:07:09.091Z,21.27
2022-12-14T08:09:57.437Z,20.57
2022-12-14T08:12:50.476Z,20.23
2022-12-14T08:15:39.871Z,21.90
2022-12-14T08:18:28.232Z,20.40
2022-12-14T08:21:18.865Z,19.97
2022-12-14T08:24:07.544Z,14.27
2022-12-14T08:26:55.879Z,22.07
2022-12-14T08:29:45.520Z,21.80
2022-12-14T08:32:34.577Z,21.67
2022-12-14T08:35:23.039Z,20.03
2022-12-14T08:38:11.367Z,18.77
2022-12-14T08:41:03.587Z,19.33
2022-12-14T08:43:52.796Z,19.17
2022-12-14T08:46:42.478Z,17.73
2022-12-14T08:49:32.588Z,18.53
2022-12-14T08:52:22.490Z,18.45
2022-12-14T08:55:11.172Z,18.03
2022-12-14T08:57:59.479Z,16.97
2022-12-14T09:00:47.863Z,17.13
2022-12-14T09:03:37.576Z,17.03
2022-12-14T09:06:28.021Z,18.57
2022-12-14T09:09:16.941Z,19.08
2022-12-14T09:12:07.478Z,18.63
2022-12-14T09:14:55.781Z,18.85
2022-12-14T09:17:44.228Z,18.07
2022-12-14T09:20:33.921Z,17.17
2022-12-14T09:23:22.662Z,17.80
2022-12-14T09:26:14.123Z,18.37
2022-12-14T09:29:02.455Z,17.37
2022-12-14T09:31:50.856Z,17.57
2022-12-14T09:34:39.242Z,17.37
2022-12-14T09:37:28.909Z,17.90
2022-12-14T09:40:17.428Z,18.63
2022-12-14T09:43:08.147Z,18.13
2022-12-14T09:46:04.059Z,19.35
2022-12-14T09:48:54.567Z,17.57
2022-12-14T09:51:42.932Z,13.25
2022-12-14T09:54:37.921Z,17.10
2022-12-14T09:57:31.478Z,18.47
2022-12-14T10:00:21.578Z,18.27
2022-12-14T10:03:33.271Z,17.83
2022-12-14T10:06:35.201Z,16.67
2022-12-14T10:09:32.546Z,17.70
2022-12-14T10:12:38.077Z,17.97
2022-12-14T10:15:31.899Z,17.33
2022-12-14T10:18:58.397Z,17.17
2022-12-14T10:21:46.337Z,16.73
2022-12-14T10:24:40.075Z,17.93
2022-12-14T10:27:53.931Z,16.87
2022-12-14T10:30:43.370Z,18.00
2022-12-14T10:33:32.971Z,18.60
2022-12-14T10:36:28.062Z,18.37
2022-12-14T10:39:30.922Z,18.60
2022-12-14T10:42:29.776Z,19.57
2022-12-14T10:45:41.224Z,19.30
2022-12-14T10:48:43.183Z,19.93
2022-12-14T10:51:37.230Z,19.58
2022-12-14T10:54:31.476Z,19.30
2022-12-14T10:57:20.742Z,18.80
2022-12-14T11:00:22.633Z,19.97
2022-12-14T11:03:16.227Z,20.07
2022-12-14T11:06:11.891Z,20.70
2022-12-14T11:09:00.668Z,19.33
2022-12-14T11:11:49.173Z,19.90
2022-12-14T11:14:38.379Z,18.53
2022-12-14T11:17:35.851Z,19.13
2022-12-14T11:20:26.406Z,19.83
2022-12-14T11:23:20.868Z,15.07
2022-12-14T11:26:14.855Z,19.17
2022-12-14T11:29:06.003Z,18.70
2022-12-14T11:31:54.805Z,18.85
2022-12-14T11:34:43.716Z,19.13
2022-12-14T11:37:33.977Z,18.67
2022-12-14T11:40:25.592Z,20.63
2022-12-14T11:43:26.240Z,20.00
2022-12-14T11:46:14.703Z,20.98
2022-12-14T11:49:03.173Z,20.73
2022-12-14T11:52:05.917Z,20.03
2022-12-14T11:55:12.153Z,21.53
2022-12-14T11:58:01.634Z,20.87
2022-12-14T12:00:52.768Z,21.30
2022-12-14T12:03:45.509Z,20.17
2022-12-14T12:06:34.107Z,20.63
2022-12-14T12:09:28.441Z,21.20
2022-12-14T12:12:21.445Z,20.60
2022-12-14T12:15:18.449Z,22.70
2022-12-14T12:18:14.634Z,20.67
2022-12-14T12:21:09.284Z,20.97
2022-12-14T12:24:02.657Z,20.77
2022-12-14T12:26:54.328Z,22.67
2022-12-14T12:29:49.549Z,23.00
2022-12-14T12:32:43.625Z,21.80
2022-12-14T12:35:44.214Z,20.83
2022-12-14T12:38:49.865Z,21.40
2022-12-14T12:41:47.425Z,22.23
2022-12-14T12:44:49.742Z,20.23
2022-12-14T12:47:47.665Z,20.87
2022-12-14T12:50:43.639Z,20.97
2022-12-14T12:53:41.736Z,22.27
2022-12-14T12:56:42.948Z,21.00
2022-12-14T12:59:37.809Z,21.17
2022-12-14T13:02:33.235Z,21.23
2022-12-14T13:08:36.967Z,21.40
2022-12-14T13:11:30.055Z,22.13
2022-12-14T13:14:25.040Z,20.40
2022-12-14T13:17:26.983Z,21.13
2022-12-14T13:20:23.521Z,20.30
2022-12-14T13:23:43.566Z,20.43
2022-12-14T13:26:57.137Z,20.83
2022-12-14T13:29:56.900Z,20.47
2022-12-14T13:32:59.138Z,20.47
2022-12-14T13:36:05.708Z,22.63
2022-12-14T13:39:10.077Z,20.50
2022-12-14T13:42:07.332Z,20.77
2022-12-14T13:44:58.881Z,22.10
2022-12-14T13:47:52.258Z,21.70
2022-12-14T13:50:51.305Z,23.47
2022-12-14T13:53:54.979Z,22.57
2022-12-14T13:56:43.459Z,21.90
2022-12-14T13:59:35.176Z,21.30
2022-12-14T14:02:53.460Z,21.50
2022-12-14T14:05:46.884Z,20.83
2022-12-14T14:08:41.748Z,21.07
2022-12-14T14:11:57.553Z,22.50
2022-12-14T14:14:52.604Z,26.17
2022-12-14T14:17:44.240Z,29.43
2022-12-14T14:20:38.734Z,26.40
2022-12-14T14:23:38.562Z,26.63
2022-12-14T14:26:34.372Z,25.83
2022-12-14T14:29:26.792Z,24.40
2022-12-14T14:32:44.805Z,24.63
2022-12-14T14:35:40.370Z,25.47
2022-12-14T14:38:32.449Z,24.60
2022-12-14T14:41:25.436Z,21.60
2022-12-14T14:44:22.575Z,23.57
2022-12-14T14:47:22.113Z,22.37
2022-12-14T14:50:22.830Z,21.70
2022-12-14T14:53:25.964Z,23.30
2022-12-14T14:56:36.410Z,23.13
2022-12-14T14:59:50.671Z,22.77
2022-12-14T15:02:43.950Z,22.47
2022-12-14T15:05:44.108Z,23.37
2022-12-14T15:08:35.782Z,26.63
2022-12-14T15:11:26.198Z,28.60
2022-12-14T15:14:32.171Z,30.88
2022-12-14T15:17:23.542Z,30.00
2022-12-14T15:20:25.927Z,30.43
2022-12-14T15:23:16.276Z,29.30
2022-12-14T15:26:16.576Z,26.63
2022-12-14T15:29:05.821Z,24.98
2022-12-14T15:32:00.212Z,26.70
2022-12-14T15:34:54.686Z,26.23
2022-12-14T15:37:48.921Z,28.20
2022-12-14T15:40:37.324Z,27.53
2022-12-14T15:43:27.590Z,27.93
2022-12-14T15:46:18.606Z,30.65
2022-12-14T15:49:09.328Z,31.17
2022-12-14T15:51:59.170Z,30.20
2022-12-14T15:54:49.377Z,30.67
2022-12-14T15:57:39.612Z,29.03
2022-12-14T16:00:28.629Z,29.17
2022-12-14T16:03:28.053Z,28.23
2022-12-14T16:06:17.395Z,26.33
2022-12-14T16:09:09.586Z,24.30
2022-12-14T16:12:02.820Z,24.60
2022-12-14T16:14:54.418Z,23.57
2022-12-14T16:17:44.505Z,22.87
2022-12-14T16:20:34.881Z,15.80
2022-12-14T16:23:28.044Z,20.77
2022-12-14T16:26:24.771Z,21.17
2022-12-14T16:29:22.874Z,23.23
2022-12-14T16:32:16.361Z,22.53
2022-12-14T16:35:05.216Z,22.97
2022-12-14T16:37:55.745Z,22.70
2022-12-14T16:40:52.915Z,22.27
2022-12-14T16:43:42.491Z,23.83
2022-12-14T16:46:32.405Z,22.83
2022-12-14T16:49:23.763Z,20.27
2022-12-14T16:52:17.691Z,20.27
2022-12-14T16:55:13.114Z,19.80
2022-12-14T16:58:02.330Z,19.27
2022-12-14T17:00:59.306Z,19.93
2022-12-14T17:04:01.834Z,20.20
2022-12-14T17:06:52.842Z,20.17
2022-12-14T17:09:41.274Z,18.65
2022-12-14T17:12:29.875Z,19.90
2022-12-14T17:15:21.648Z,19.40
2022-12-14T17:18:12.027Z,19.57
2022-12-14T17:21:02.656Z,19.63
2022-12-14T17:23:51.077Z,20.25
2022-12-14T17:26:39.391Z,20.60
2022-12-14T17:29:30.039Z,18.83
2022-12-14T17:32:19.238Z,16.70
2022-12-14T17:35:11.060Z,22.30
2022-12-14T17:38:00.938Z,20.30
2022-12-14T17:40:50.638Z,20.63
2022-12-14T17:43:41.688Z,20.43
2022-12-14T17:46:38.878Z,20.27
2022-12-14T17:49:34.914Z,19.53
2022-12-14T17:52:28.548Z,19.80
2022-12-14T17:55:21.348Z,20.43
2022-12-14T17:58:11.348Z,19.23
2022-12-14T18:01:03.315Z,20.00
2022-12-14T18:03:51.986Z,18.97
2022-12-14T18:06:42.140Z,19.83
2022-12-14T18:09:30.585Z,20.23
2022-12-14T18:12:25.846Z,18.23
2022-12-14T18:15:19.476Z,19.20
2022-12-14T18:18:08.200Z,19.50
2022-12-14T18:20:59.072Z,20.00
2022-12-14T18:23:50.907Z,19.52
2022-12-14T18:26:39.249Z,19.73
2022-12-14T18:29:28.882Z,20.83
2022-12-14T18:32:17.299Z,20.87
2022-12-14T18:35:06.297Z,20.17
2022-12-14T18:37:54.638Z,19.90
2022-12-14T18:40:46.094Z,21.30
2022-12-14T18:43:43.469Z,23.03
2022-12-14T18:46:33.673Z,21.43
2022-12-14T18:49:22.103Z,27.17
2022-12-14T18:52:13.413Z,31.27
2022-12-14T18:55:01.780Z,28.30
2022-12-14T18:57:52.658Z,22.87
2022-12-14T19:00:41.250Z,22.52
2022-12-14T19:03:33.574Z,21.53
2022-12-14T19:09:34.100Z,24.00
2022-12-14T19:12:22.445Z,24.23
2022-12-14T19:15:15.454Z,25.50
2022-12-14T19:18:03.948Z,23.87
2022-12-14T19:20:53.648Z,23.93
2022-12-14T19:23:42.074Z,21.60
2022-12-14T19:26:30.676Z,21.50
2022-12-14T19:29:20.164Z,21.00
2022-12-14T19:32:08.564Z,22.57
2022-12-14T19:34:57.024Z,21.57
2022-12-14T19:37:46.804Z,20.23
2022-12-14T19:40:35.121Z,21.07
2022-12-14T19:43:23.454Z,21.13
2022-12-14T19:46:14.086Z,22.43
2022-12-14T19:49:02.486Z,21.23
2022-12-14T19:51:50.935Z,21.07
2022-12-14T19:54:40.811Z,22.13
2022-12-14T19:57:29.639Z,21.23
2022-12-14T20:00:18.311Z,20.60
2022-12-14T20:03:06.780Z,21.73
2022-12-14T20:05:58.612Z,21.47
2022-12-14T20:08:49.547Z,21.93
2022-12-14T20:14:27.664Z,21.27
2022-12-14T20:17:16.609Z,22.40
2022-12-14T20:20:05.288Z,22.87
2022-12-14T20:22:53.652Z,22.07
2022-12-14T20:25:42.209Z,23.60
2022-12-14T20:28:32.145Z,24.10
2022-12-14T20:31:22.313Z,21.50
2022-12-14T20:34:11.362Z,17.90
2022-12-14T20:36:59.755Z,22.93
2022-12-14T20:39:48.092Z,22.30
2022-12-14T20:42:36.439Z,23.50
2022-12-14T20:45:26.420Z,23.00
2022-12-14T20:48:15.002Z,22.13
2022-12-14T20:51:04.373Z,20.87
2022-12-14T20:53:52.833Z,22.67
2022-12-14T20:56:42.034Z,22.90
2022-12-14T20:59:30.427Z,22.50
2022-12-14T21:02:21.716Z,21.57
2022-12-14T21:05:10.447Z,21.63
2022-12-14T21:07:58.832Z,20.63
2022-12-14T21:10:47.154Z,22.80
2022-12-14T21:13:35.503Z,20.67
2022-12-14T21:16:23.883Z,21.63
2022-12-14T21:19:14.329Z,23.17
2022-12-14T21:22:02.770Z,25.15
2022-12-14T21:25:07.620Z,23.73
2022-12-14T21:27:56.316Z,20.63
2022-12-14T21:30:44.682Z,19.80
2022-12-14T21:33:35.613Z,22.70
2022-12-14T21:36:25.437Z,19.92
2022-12-14T21:39:14.228Z,22.87
2022-12-14T21:42:13.076Z,22.20
2022-12-14T21:45:02.599Z,23.13
2022-12-14T21:47:51.209Z,26.00
2022-12-14T21:50:42.432Z,25.30
2022-12-14T21:53:35.398Z,24.67
2022-12-14T21:56:41.604Z,26.10
2022-12-14T21:59:31.356Z,27.63
2022-12-14T22:02:21.907Z,29.60
2022-12-14T22:05:10.983Z,29.23
2022-12-14T22:07:59.255Z,29.60
2022-12-14T22:10:48.973Z,31.37
2022-12-14T22:13:37.289Z,30.83
2022-12-14T22:16:25.697Z,30.77
2022-12-14T22:19:15.888Z,31.73
2022-12-14T22:22:04.286Z,30.80
2022-12-14T22:24:52.618Z,32.13
2022-12-14T22:27:42.255Z,32.77
2022-12-14T22:30:32.044Z,35.47
2022-12-14T22:33:20.511Z,31.23
2022-12-14T22:36:09.519Z,28.43
2022-12-14T22:38:58.262Z,30.90
2022-12-14T22:41:47.228Z,35.27
2022-12-14T22:44:37.675Z,28.27
2022-12-14T22:47:26.466Z,20.63
2022-12-14T22:50:14.921Z,25.17
2022-12-14T22:53:03.284Z,26.67
2022-12-14T22:55:52.203Z,25.87
2022-12-14T22:58:42.182Z,25.77
2022-12-14T23:01:32.466Z,25.73
2022-12-14T23:04:20.978Z,24.50
2022-12-14T23:07:09.693Z,29.40
2022-12-14T23:10:15.661Z,28.67
2022-12-14T23:13:21.667Z,30.83
2022-12-14T23:16:27.662Z,28.73
2022-12-14T23:19:35.249Z,27.57
2022-12-14T23:22:41.265Z,27.57
2022-12-14T23:25:46.992Z,28.37
2022-12-14T23:28:52.644Z,27.93
2022-12-14T23:31:58.561Z,25.67
2022-12-14T23:35:05.750Z,28.33
2022-12-14T23:38:11.578Z,27.10
2022-12-14T23:41:18.076Z,27.80
2022-12-14T23:44:23.878Z,27.67
2022-12-14T23:47:29.495Z,26.97
2022-12-14T23:50:36.628Z,28.00
2022-12-14T23:53:42.284Z,29.10
2022-12-14T23:56:48.059Z,27.47
2022-12-14T23:59:54.163Z,26.73
